Time;durP1;ratioP1;P1;durP2;ratioP2;P2;SDS_P1;SDS_P2;PMS_P1;PMS_P2;Temp;Humidity;BMP_temperature;BMP_pressure;BME280_temperature;BME280_humidity;BME280_pressure;Samples;Min_cycle;Max_cycle;Signal;HPM_P1;HPM_P2
2021/10/26 00:01:58;;;;;;;9.15;5.37;;;;;;;5.91;58.19;100782.34;2201391;80;30151;-64
2021/10/26 00:05:00;;;;;;;10.72;5.10;;;;;;;5.86;58.34;100782.89;2202340;80;27759;-64
2021/10/26 00:08:01;;;;;;;8.80;5.22;;;;;;;5.81;58.46;100780.78;2203573;80;28531;-64
2021/10/26 00:11:05;;;;;;;10.50;5.53;;;;;;;5.75;58.49;100774.28;2204288;80;31683;-64
2021/10/26 00:14:07;;;;;;;8.18;4.75;;;;;;;5.69;58.63;100783.71;2204034;80;33006;-64
2021/10/26 00:17:09;;;;;;;8.45;5.78;;;;;;;5.62;58.92;100781.20;2201736;80;30185;-64
2021/10/26 00:20:11;;;;;;;12.68;5.87;;;;;;;5.55;58.83;100783.99;2201751;80;27696;-65
2021/10/26 00:23:14;;;;;;;9.63;5.28;;;;;;;5.48;58.92;100779.27;2201345;80;29599;-62
2021/10/26 00:26:16;;;;;;;10.32;5.03;;;;;;;5.40;59.10;100790.05;2201506;80;32263;-65
2021/10/26 00:29:18;;;;;;;9.23;4.67;;;;;;;5.32;59.28;100784.89;2201358;80;34168;-63
2021/10/26 00:32:20;;;;;;;9.18;4.62;;;;;;;5.26;59.38;100782.37;2203630;80;29646;-62
2021/10/26 00:35:27;;;;;;;11.28;5.03;;;;;;;5.25;59.59;100786.37;2204103;80;28054;-63
2021/10/26 00:38:26;;;;;;;11.10;4.65;;;;;;;5.24;59.64;100784.62;2203727;80;28653;-65
2021/10/26 00:41:28;;;;;;;13.78;5.80;;;;;;;5.23;59.79;100784.20;2204101;80;31545;-65
2021/10/26 00:44:31;;;;;;;11.60;5.55;;;;;;;5.21;59.90;100784.71;2203311;80;34329;-63
2021/10/26 00:47:33;;;;;;;9.30;5.42;;;;;;;5.20;60.09;100781.16;2203799;80;29122;-63
2021/10/26 00:50:35;;;;;;;14.73;5.83;;;;;;;5.18;60.14;100782.97;2203986;80;27586;-63
2021/10/26 00:53:37;;;;;;;8.98;5.45;;;;;;;5.14;60.13;100777.28;2203279;80;29868;-61
2021/10/26 00:56:39;;;;;;;9.83;5.60;;;;;;;5.09;60.18;100772.06;2201792;80;31389;-63
2021/10/26 00:59:41;;;;;;;12.68;5.83;;;;;;;5.03;60.29;100773.53;2201930;80;33921;-64
2021/10/26 01:02:44;;;;;;;13.05;5.72;;;;;;;4.99;60.46;100785.11;2202008;80;29666;-59
2021/10/26 01:05:46;;;;;;;10.18;5.85;;;;;;;4.95;60.67;100780.32;2203909;80;27636;-58
2021/10/26 01:08:49;;;;;;;11.25;6.47;;;;;;;4.91;60.78;100777.29;2203391;80;29466;-59
2021/10/26 01:11:51;;;;;;;11.73;6.90;;;;;;;4.87;60.89;100776.91;2203757;80;31911;-58
2021/10/26 01:14:53;;;;;;;11.50;6.08;;;;;;;4.81;61.02;100781.89;2203741;80;32992;-59
2021/10/26 01:17:55;;;;;;;18.45;6.35;;;;;;;4.77;61.15;100777.53;2203435;80;30508;-58
2021/10/26 01:20:57;;;;;;;10.30;6.33;;;;;;;4.72;61.36;100767.44;2201710;80;27662;-58
2021/10/26 01:23:59;;;;;;;14.15;6.22;;;;;;;4.67;61.33;100775.48;2203369;80;29836;-59
2021/10/26 01:27:01;;;;;;;8.65;5.40;;;;;;;4.63;61.45;100770.27;2203663;80;31376;-59
2021/10/26 01:30:04;;;;;;;10.63;5.70;;;;;;;4.58;61.65;100776.09;2203499;80;33004;-58
2021/10/26 01:33:07;;;;;;;9.55;5.40;;;;;;;4.56;61.67;100774.80;2175307;80;30024;-59
2021/10/26 01:36:09;;;;;;;11.22;6.05;;;;;;;4.56;61.78;100774.80;2203631;80;28096;-59
2021/10/26 01:39:11;;;;;;;13.15;6.25;;;;;;;4.57;61.87;100777.89;2203471;80;29175;-58
2021/10/26 01:42:13;;;;;;;10.80;6.80;;;;;;;4.62;61.98;100781.78;2203809;80;31948;-60
2021/10/26 01:45:15;;;;;;;11.35;6.65;;;;;;;4.64;62.21;100789.27;2203570;80;34020;-59
2021/10/26 01:48:17;;;;;;;14.10;7.15;;;;;;;4.65;62.27;100781.27;2202467;80;29426;-59
2021/10/26 01:51:19;;;;;;;15.25;7.37;;;;;;;4.65;62.23;100781.27;2201986;80;27664;-59
2021/10/26 01:54:22;;;;;;;12.82;7.47;;;;;;;4.66;62.33;100776.85;2201881;80;28804;-59
2021/10/26 01:57:26;;;;;;;15.32;7.20;;;;;;;4.65;62.49;100776.42;2201335;80;31114;-59
2021/10/26 02:00:27;;;;;;;13.88;7.42;;;;;;;4.62;62.51;100771.17;2201310;80;34292;-59
2021/10/26 02:03:29;;;;;;;16.00;7.25;;;;;;;4.59;62.62;100768.56;2202477;80;29675;-59
2021/10/26 02:06:32;;;;;;;14.35;7.87;;;;;;;4.55;62.64;100767.28;2203588;80;27707;-58
2021/10/26 02:09:37;;;;;;;17.85;8.63;;;;;;;4.52;62.61;100767.36;2199898;80;29594;-58
2021/10/26 02:12:39;;;;;;;21.30;10.93;;;;;;;4.49;62.76;100771.39;2200075;80;30348;-59
2021/10/26 02:15:41;;;;;;;16.85;9.40;;;;;;;4.45;62.93;100769.67;2199743;80;33409;-59
2021/10/26 02:18:44;;;;;;;20.30;9.00;;;;;;;4.39;62.97;100773.31;2199625;80;30492;-58
2021/10/26 02:21:46;;;;;;;21.45;9.55;;;;;;;4.35;63.07;100764.97;2200478;80;27677;-59
2021/10/26 02:24:49;;;;;;;18.87;10.00;;;;;;;4.34;63.06;100765.01;2199531;80;29359;-60
2021/10/26 02:27:50;;;;;;;17.10;10.72;;;;;;;4.36;63.07;100763.21;2198112;80;31376;-60
2021/10/26 02:30:52;;;;;;;17.12;10.03;;;;;;;4.35;63.24;100763.64;2197855;80;34264;-60
2021/10/26 02:33:54;;;;;;;22.00;11.68;;;;;;;4.34;63.27;100767.66;2197803;81;30517;-59
2021/10/26 02:36:56;;;;;;;15.93;10.90;;;;;;;4.34;63.36;100771.64;2198049;80;27775;-59
2021/10/26 02:39:58;;;;;;;18.90;10.98;;;;;;;4.31;63.47;100770.36;2198377;80;28839;-62
2021/10/26 02:43:00;;;;;;;19.12;11.03;;;;;;;4.26;63.37;100755.39;2197775;81;31098;-59
2021/10/26 02:46:03;;;;;;;18.55;10.48;;;;;;;4.24;63.44;100765.14;2198693;80;33480;-59
2021/10/26 02:49:05;;;;;;;16.85;10.82;;;;;;;4.21;63.39;100766.97;2200262;80;30441;-60
2021/10/26 02:52:08;;;;;;;20.95;10.60;;;;;;;4.14;63.33;100766.20;2200004;80;27727;-60
2021/10/26 02:55:10;;;;;;;19.02;11.57;;;;;;;4.08;63.39;100769.82;2199830;80;29537;-61
2021/10/26 02:58:12;;;;;;;17.48;10.48;;;;;;;4.01;63.42;100769.94;2199650;80;32230;-61
2021/10/26 03:01:15;;;;;;;18.90;11.63;;;;;;;3.92;63.45;100767.84;2199679;80;34190;-60
2021/10/26 03:04:17;;;;;;;23.32;11.53;;;;;;;3.85;63.47;100767.95;2200040;80;29332;-63
2021/10/26 03:07:19;;;;;;;19.10;12.68;;;;;;;3.77;63.46;100771.60;2197765;80;27782;-60
2021/10/26 03:10:21;;;;;;;18.20;11.45;;;;;;;3.69;63.53;100776.11;2161398;81;30002;-60
2021/10/26 03:13:23;;;;;;;19.30;11.10;;;;;;;3.60;63.87;100766.52;2161523;81;32511;-60
2021/10/26 03:16:25;;;;;;;28.95;13.72;;;;;;;3.57;63.85;100773.63;2161535;82;34055;-58
2021/10/26 03:19:27;;;;;;;32.73;15.95;;;;;;;3.53;63.98;100775.89;2161521;82;30528;-59
2021/10/26 03:22:29;;;;;;;27.75;17.07;;;;;;;3.48;64.16;100776.81;2161933;82;27574;-59
2021/10/26 03:25:33;;;;;;;28.17;17.52;;;;;;;3.46;64.18;100777.31;2162510;82;29859;-62
2021/10/26 03:28:36;;;;;;;29.77;15.78;;;;;;;3.44;64.34;100766.28;2162602;82;27719;-60
2021/10/26 03:31:39;;;;;;;30.35;17.57;;;;;;;3.39;64.35;100765.02;2163456;81;34171;-60
2021/10/26 03:34:41;;;;;;;33.45;17.00;;;;;;;3.36;64.32;100765.52;2163360;82;29634;-61
2021/10/26 03:37:43;;;;;;;32.28;18.60;;;;;;;3.32;64.42;100760.69;2163762;81;27607;-59
2021/10/26 03:40:45;;;;;;;45.00;21.52;;;;;;;3.28;64.55;100768.27;2162821;81;29103;-60
2021/10/26 03:43:47;;;;;;;41.48;22.48;;;;;;;3.24;64.79;100777.13;2161302;82;32245;-60
2021/10/26 03:46:50;;;;;;;40.73;22.25;;;;;;;3.21;64.84;100774.08;2161759;82;33368;-60
2021/10/26 03:49:52;;;;;;;39.00;22.10;;;;;;;3.17;64.92;100775.00;2163012;82;29958;-62
2021/10/26 03:52:54;;;;;;;47.05;24.15;;;;;;;3.14;65.00;100775.92;2163819;82;27705;-67
2021/10/26 03:55:58;;;;;;;46.45;22.02;;;;;;;3.11;65.23;100781.24;2163624;82;29111;-67
2021/10/26 03:59:04;;;;;;;47.97;20.40;;;;;;;3.10;65.26;100769.33;2163708;82;30263;-66
2021/10/26 04:02:10;;;;;;;50.73;23.32;;;;;;;3.10;65.88;100770.66;2161869;82;33013;-66
2021/10/26 04:05:20;;;;;;;53.02;26.10;;;;;;;3.10;65.71;100765.36;2161711;82;29392;-65
2021/10/26 04:08:22;;;;;;;62.98;26.20;;;;;;;3.13;65.68;100766.66;2161297;81;27677;-63
2021/10/26 04:11:24;;;;;;;60.67;26.85;;;;;;;3.15;65.72;100771.48;2162955;82;29971;-65
2021/10/26 04:14:26;;;;;;;52.90;25.50;;;;;;;3.15;65.76;100775.00;2163584;82;30800;-62
2021/10/26 04:17:28;;;;;;;57.45;27.37;;;;;;;3.17;65.75;100780.30;2163271;82;32825;-61
2021/10/26 04:20:30;;;;;;;46.85;24.12;;;;;;;3.18;65.74;100784.70;2161694;82;29351;-60
2021/10/26 04:23:34;;;;;;;53.45;25.85;;;;;;;3.17;65.76;100781.62;2162005;82;27702;-61
2021/10/26 04:26:36;;;;;;;54.60;26.82;;;;;;;3.17;65.72;100780.30;2161813;81;29565;-61
2021/10/26 04:29:41;;;;;;;54.08;24.27;;;;;;;3.16;65.77;100779.41;2162776;82;31573;-59
2021/10/26 04:32:43;;;;;;;41.95;23.83;;;;;;;3.15;65.88;100776.32;2163503;82;33007;-61
2021/10/26 04:35:45;;;;;;;47.95;25.27;;;;;;;3.15;66.29;100786.05;2163301;81;30534;-59
2021/10/26 04:38:47;;;;;;;48.40;24.92;;;;;;;3.11;66.34;100770.66;2163057;82;27598;-60
2021/10/26 04:41:49;;;;;;;44.88;22.35;;;;;;;3.13;66.28;100766.66;2161295;82;29431;-61
2021/10/26 04:44:51;;;;;;;46.85;23.73;;;;;;;3.12;66.51;100777.70;2161678;82;31432;-62
2021/10/26 04:47:53;;;;;;;46.02;23.25;;;;;;;3.15;66.54;100778.97;2161302;82;34273;-61
2021/10/26 04:50:55;;;;;;;41.92;23.05;;;;;;;3.19;66.58;100775.86;2161775;81;30582;-59
2021/10/26 04:53:57;;;;;;;39.10;21.90;;;;;;;3.23;66.65;100769.61;2162094;82;28141;-60
2021/10/26 04:56:59;;;;;;;41.25;21.82;;;;;;;3.24;67.01;100762.56;2163628;81;29059;-60
2021/10/26 05:00:01;;;;;;;40.65;21.50;;;;;;;3.26;66.93;100764.75;2163726;81;31849;-60
2021/10/26 05:03:03;;;;;;;38.42;20.85;;;;;;;3.26;66.81;100757.67;2163372;82;34357;-60
2021/10/26 05:06:05;;;;;;;34.70;20.08;;;;;;;3.26;66.75;100758.13;2163234;82;30511;-60
2021/10/26 05:09:07;;;;;;;35.52;20.62;;;;;;;3.25;66.62;100757.23;2179364;80;27835;-59
2021/10/26 05:12:09;;;;;;;34.60;19.77;;;;;;;3.22;66.58;100765.24;2203781;80;29078;-61
2021/10/26 05:15:12;;;;;;;37.10;20.68;;;;;;;3.18;66.53;100760.88;2203485;80;31875;-62
2021/10/26 05:18:15;;;;;;;35.13;20.20;;;;;;;3.13;66.50;100760.93;2201684;80;33841;-60
2021/10/26 05:21:21;;;;;;;33.35;18.67;;;;;;;3.09;66.49;100756.98;2201829;80;29536;-59
2021/10/26 05:24:24;;;;;;;34.40;19.02;;;;;;;3.03;66.51;100748.67;2201516;80;27676;-60
2021/10/26 05:27:25;;;;;;;32.10;18.77;;;;;;;2.99;66.65;100748.27;2202961;80;29909;-60
2021/10/26 05:30:28;;;;;;;31.73;18.95;;;;;;;2.97;66.71;100753.59;2203838;80;31467;-59
2021/10/26 05:33:30;;;;;;;30.25;19.75;;;;;;;2.96;66.86;100753.16;2203414;80;34178;-61
2021/10/26 05:36:33;;;;;;;37.42;23.07;;;;;;;2.98;67.08;100754.48;2203633;80;30349;-62
2021/10/26 05:39:38;;;;;;;45.28;26.90;;;;;;;2.98;67.30;100751.84;2204064;80;27845;-62
2021/10/26 05:42:40;;;;;;;55.80;29.98;;;;;;;3.00;67.24;100759.29;2202657;80;29634;-63
2021/10/26 05:45:45;;;;;;;59.77;30.35;;;;;;;3.02;67.32;100764.12;2201135;80;32353;-60
2021/10/26 05:48:46;;;;;;;51.42;30.25;;;;;;;3.02;67.31;100768.98;2201382;80;34272;-63
2021/10/26 05:51:48;;;;;;;73.07;39.78;;;;;;;3.03;67.58;100776.03;2201224;80;30526;-63
2021/10/26 05:54:50;;;;;;;54.67;28.57;;;;;;;3.03;67.58;100775.14;2201310;80;27712;-63
2021/10/26 05:57:52;;;;;;;57.23;25.48;;;;;;;3.06;67.68;100772.93;2201335;80;30050;-63
2021/10/26 06:00:54;;;;;;;58.20;27.82;;;;;;;3.09;67.79;100767.14;2201315;80;32245;-62
2021/10/26 06:03:56;;;;;;;64.92;29.50;;;;;;;3.12;67.90;100768.87;2201893;80;34183;-62
2021/10/26 06:06:58;;;;;;;54.25;29.57;;;;;;;3.18;67.90;100775.43;2203561;80;30678;-62
2021/10/26 06:10:00;;;;;;;64.10;37.58;;;;;;;3.26;67.94;100780.64;2203667;78;27641;-63
2021/10/26 06:13:08;;;;;;;79.55;44.08;;;;;;;3.33;68.04;100781.87;2204067;80;28694;-62
2021/10/26 06:16:06;;;;;;;65.20;36.23;;;;;;;3.41;68.09;100782.20;2225452;79;31881;-61
2021/10/26 06:19:10;;;;;;;63.38;33.73;;;;;;;3.45;68.08;100785.25;2230262;79;33007;-62
2021/10/26 06:22:12;;;;;;;75.28;35.55;;;;;;;3.54;68.08;100782.94;2230491;79;29382;-63
2021/10/26 06:25:14;;;;;;;71.45;37.03;;;;;;;3.61;68.05;100774.03;2230106;79;27718;-61
2021/10/26 06:28:16;;;;;;;68.10;36.80;;;;;;;3.68;68.01;100776.14;2230335;79;29854;-60
2021/10/26 06:31:18;;;;;;;74.47;35.68;;;;;;;3.77;67.96;100785.28;2229440;79;32243;-62
2021/10/26 06:34:20;;;;;;;82.62;37.88;;;;;;;3.84;67.93;100788.29;2205541;79;32785;-63
2021/10/26 06:37:25;;;;;;;71.05;36.23;;;;;;;3.92;67.95;100796.99;2161133;81;30521;-63
2021/10/26 06:40:28;;;;;;;72.40;37.30;;;;;;;4.03;67.98;100797.31;2161657;82;27615;-61
2021/10/26 06:43:32;;;;;;;79.10;38.42;;;;;;;4.14;68.00;100799.34;2202466;79;28724;-62
2021/10/26 06:46:35;;;;;;;89.42;45.25;;;;;;;4.28;68.05;100796.92;2108700;84;31815;-61
2021/10/26 06:49:36;;;;;;;85.45;43.65;;;;;;;4.39;67.94;100795.86;2107374;83;34148;-61
2021/10/26 06:52:39;;;;;;;96.90;47.30;;;;;;;4.53;67.94;100792.10;2152221;82;30176;-61
2021/10/26 06:55:41;;;;;;;89.05;45.10;;;;;;;4.67;67.91;100788.75;2229986;79;27678;-61
2021/10/26 06:58:44;;;;;;;83.22;41.25;;;;;;;4.81;67.82;100791.61;2229263;79;29853;-62
2021/10/26 07:01:46;;;;;;;75.40;39.60;;;;;;;4.95;67.72;100790.05;2230076;79;32240;-62
2021/10/26 07:04:48;;;;;;;73.92;39.18;;;;;;;5.14;67.78;100794.55;2230346;79;34185;-61
2021/10/26 07:07:51;;;;;;;67.45;36.42;;;;;;;5.44;67.85;100804.17;2225090;79;29311;-62
2021/10/26 07:10:56;;;;;;;67.60;36.55;;;;;;;5.83;67.75;100809.54;2214080;78;27660;-62
2021/10/26 07:13:57;;;;;;;83.22;37.83;;;;;;;6.15;67.42;100800.46;2166718;82;29484;-63
2021/10/26 07:16:59;;;;;;;71.37;36.38;;;;;;;6.41;67.29;100796.30;2184109;80;32033;-63
2021/10/26 07:20:03;;;;;;;80.97;42.35;;;;;;;6.82;67.21;100795.25;2159022;82;34209;-62
2021/10/26 07:23:05;;;;;;;72.90;37.40;;;;;;;7.28;67.02;100801.61;2158465;82;30532;-62
2021/10/26 07:26:07;;;;;;;70.75;34.75;;;;;;;7.64;66.76;100796.11;2169349;81;27697;-63
2021/10/26 07:29:09;;;;;;;61.60;32.35;;;;;;;8.07;66.37;100797.94;2150289;81;29123;-60
2021/10/26 07:32:11;;;;;;;45.15;27.37;;;;;;;8.44;66.18;100803.45;2146728;82;32202;-62
2021/10/26 07:35:14;;;;;;;28.00;15.80;;;;;;;8.81;65.96;100808.05;2146327;82;34381;-62
2021/10/26 07:38:40;;;;;;;25.00;15.13;;;;;;;9.07;65.71;100799.13;2134938;82;29141;-61
2021/10/26 07:41:22;;;;;;;21.87;14.55;;;;;;;9.38;65.41;100799.83;2113320;83;27677;-62
2021/10/26 07:44:24;;;;;;;26.75;14.25;;;;;;;9.69;65.15;100798.69;2054200;86;28685;-63
2021/10/26 07:47:28;;;;;;;27.55;15.65;;;;;;;9.95;64.76;100794.12;2036401;86;31464;-62
2021/10/26 07:50:30;;;;;;;26.17;15.55;;;;;;;10.21;64.37;100801.12;2044753;86;33069;-60
2021/10/26 07:53:33;;;;;;;26.77;15.68;;;;;;;10.40;64.00;100795.05;2054374;86;29546;-61
2021/10/26 07:56:35;;;;;;;28.40;15.20;;;;;;;10.53;63.65;100800.79;2056812;85;27688;-61
2021/10/26 07:59:37;;;;;;;30.55;14.98;;;;;;;10.61;63.29;100804.00;2062007;86;29466;-62
2021/10/26 08:02:39;;;;;;;27.65;15.65;;;;;;;10.68;63.19;100803.28;2061948;86;31935;-61
2021/10/26 08:05:41;;;;;;;27.27;15.32;;;;;;;10.77;63.00;100806.92;2060786;84;33010;-66
2021/10/26 08:08:43;;;;;;;33.85;15.35;;;;;;;10.86;62.79;100801.64;2058033;86;29307;-67
2021/10/26 08:11:45;;;;;;;21.02;14.40;;;;;;;10.98;62.71;100789.53;2089086;84;27906;-66
2021/10/26 08:14:49;;;;;;;25.17;15.08;;;;;;;11.15;62.52;100792.34;2086761;84;29388;-64
2021/10/26 08:17:51;;;;;;;26.93;16.32;;;;;;;11.30;62.42;100793.94;2086501;85;31209;-66
2021/10/26 08:20:53;;;;;;;29.23;15.45;;;;;;;11.44;62.05;100791.50;2086235;85;33186;-66
2021/10/26 08:23:57;;;;;;;22.17;13.68;;;;;;;11.62;61.83;100778.19;2088120;84;30347;-67
2021/10/26 08:27:01;;;;;;;25.17;14.40;;;;;;;11.73;61.09;100781.71;2094851;84;27695;-65
2021/10/26 08:33:18;;;;;;;30.82;17.02;;;;;;;11.88;60.58;100785.02;2094565;85;31054;-65
2021/10/26 08:36:16;;;;;;;33.10;20.72;;;;;;;11.95;60.31;100784.25;2094105;83;33983;-65
2021/10/26 08:39:18;;;;;;;31.40;18.37;;;;;;;11.99;60.13;100788.57;2094920;84;30128;-68
2021/10/26 08:42:21;;;;;;;33.70;19.75;;;;;;;12.06;59.98;100786.46;2204766;80;27710;-65
2021/10/26 08:45:25;;;;;;;45.78;21.42;;;;;;;12.10;59.36;100790.26;2212219;80;28677;-65
2021/10/26 08:48:27;;;;;;;32.40;18.10;;;;;;;12.11;59.57;100787.09;2213165;80;31079;-65
2021/10/26 08:51:29;;;;;;;30.50;16.75;;;;;;;12.12;59.43;100790.17;2213205;80;32944;-65
2021/10/26 08:54:31;;;;;;;32.10;17.82;;;;;;;12.14;59.27;100786.95;2213208;80;30122;-66
2021/10/26 08:57:32;;;;;;;52.80;26.93;;;;;;;12.18;59.17;100787.66;2213252;79;27680;-66
2021/10/26 09:00:39;;;;;;;50.33;21.15;;;;;;;12.22;59.10;100787.45;2212291;80;29521;-66
2021/10/26 09:03:41;;;;;;;40.80;19.25;;;;;;;12.24;58.72;100790.94;2211185;80;31105;-66
2021/10/26 09:06:53;;;;;;;38.40;17.25;;;;;;;12.25;58.71;100783.25;2210989;80;33913;-67
2021/10/26 09:10:00;;;;;;;31.85;17.23;;;;;;;12.24;58.38;100786.02;2199179;80;29387;-67
2021/10/26 09:19:46;;;;;;;31.45;15.28;;;;;;;12.20;58.52;100772.34;2162856;82;31852;-66
2021/10/26 09:22:51;;;;;;;30.27;13.85;;;;;;;12.34;58.38;100771.19;2161131;82;33908;-67
2021/10/26 09:26:00;;;;;;;32.90;15.95;;;;;;;12.48;58.30;100771.00;2157032;80;29351;-66
2021/10/26 09:29:02;;;;;;;27.98;14.73;;;;;;;12.58;58.04;100777.64;2115458;84;27750;-67
2021/10/26 09:32:23;;;;;;;28.83;14.65;;;;;;;12.68;57.64;100782.08;2142254;82;29402;-66
2021/10/26 09:35:26;;;;;;;24.65;14.63;;;;;;;12.76;57.72;100783.42;2163086;82;32194;-69
2021/10/26 09:38:29;;;;;;;27.93;13.62;;;;;;;12.89;57.53;100778.75;2155103;80;33778;-67
2021/10/26 09:41:58;;;;;;;25.57;13.20;;;;;;;12.97;57.62;100780.59;2140099;81;29523;-69
2021/10/26 09:45:03;;;;;;;21.80;12.68;;;;;;;13.06;57.28;100770.67;2136910;82;27691;-66
2021/10/26 09:48:13;;;;;;;;;;;;;;;13.12;57.08;100774.01;2126922;82;28913;-68
2021/10/26 09:51:21;;;;;;;21.20;12.63;;;;;;;13.14;56.84;100771.62;2147706;82;31029;-66
2021/10/26 09:54:23;;;;;;;24.35;12.00;;;;;;;13.20;56.93;100776.69;2147899;82;33896;-66
2021/10/26 09:57:35;;;;;;;24.37;12.85;;;;;;;13.31;56.98;100778.81;2146938;82;29328;-68
2021/10/26 10:00:42;;;;;;;19.95;11.57;;;;;;;13.42;56.61;100784.11;2123868;82;27773;-66
2021/10/26 10:03:43;;;;;;;17.77;12.28;;;;;;;13.54;56.47;100783.94;2131115;82;28649;-66
2021/10/26 10:06:50;;;;;;;21.17;13.62;;;;;;;13.65;56.08;100782.86;2153411;81;31923;-64
2021/10/26 10:09:57;;;;;;;19.40;11.97;;;;;;;13.76;55.75;100780.44;2134973;81;33748;-67
2021/10/26 10:13:03;;;;;;;21.48;13.05;;;;;;;13.84;55.67;100775.97;2164254;80;29362;-67
2021/10/26 10:16:09;;;;;;;21.30;12.30;;;;;;;13.90;55.69;100776.13;2177427;80;27703;-69
2021/10/26 10:19:14;;;;;;;24.98;13.10;;;;;;;13.98;55.83;100772.52;2172132;80;31199;-66
2021/10/26 10:22:15;;;;;;;22.45;12.70;;;;;;;14.09;55.89;100774.11;2168668;80;31046;-66
2021/10/26 10:25:18;;;;;;;17.40;12.23;;;;;;;14.21;55.61;100774.39;2159163;80;32995;-66
2021/10/26 10:28:22;;;;;;;18.95;12.68;;;;;;;14.35;55.21;100777.16;2169082;80;29349;-68
2021/10/26 10:31:25;;;;;;;20.08;12.20;;;;;;;14.35;55.21;100777.16;2169638;80;27699;-67
2021/10/26 10:34:27;;;;;;;20.55;11.65;;;;;;;14.41;55.20;100771.88;2168683;80;28838;-74
2021/10/26 10:37:31;;;;;;;25.35;11.03;;;;;;;14.50;55.29;100767.28;2186249;80;31003;-69
2021/10/26 10:40:33;;;;;;;19.50;11.00;;;;;;;14.65;55.14;100759.23;2183589;80;32980;-62
2021/10/26 10:43:36;;;;;;;20.57;10.18;;;;;;;14.80;54.81;100749.41;2162302;80;30516;-69
2021/10/26 10:46:47;;;;;;;19.90;11.63;;;;;;;14.93;54.48;100729.31;2153777;81;27689;-62
2021/10/26 10:49:51;;;;;;;19.95;10.85;;;;;;;14.93;54.48;100729.31;2152380;80;28954;-67
2021/10/26 10:53:10;;;;;;;12.43;9.38;;;;;;;15.25;54.53;100754.80;2172777;80;30997;-66
2021/10/26 10:56:20;;;;;;;13.85;9.38;;;;;;;15.44;54.17;100744.58;2135728;81;33765;-64
2021/10/26 10:59:43;;;;;;;14.53;8.68;;;;;;;15.69;53.93;100750.26;2128626;83;29327;-60
2021/10/26 11:02:49;;;;;;;13.55;9.18;;;;;;;15.90;53.59;100743.48;2145120;83;27816;-66
2021/10/26 11:05:51;;;;;;;18.95;9.10;;;;;;;16.10;53.44;100748.95;2135235;83;28655;-65
2021/10/26 11:08:53;;;;;;;17.00;9.93;;;;;;;16.23;52.78;100752.19;2153543;82;32373;-66
2021/10/26 11:12:29;;;;;;;15.05;9.20;;;;;;;16.27;52.56;100738.86;2157992;82;34156;-70
2021/10/26 11:15:45;;;;;;;18.40;9.85;;;;;;;16.23;52.22;100719.75;2157682;82;29401;-78
2021/10/26 11:18:49;;;;;;;15.78;8.55;;;;;;;16.38;52.24;100731.39;2165766;82;27713;-76
2021/10/26 11:21:51;;;;;;;16.05;9.25;;;;;;;16.46;51.41;100725.45;2169104;81;29461;-79
2021/10/26 11:25:36;;;;;;;19.95;12.15;;;;;;;16.54;52.05;100725.78;2170079;81;31393;-77
2021/10/26 11:28:40;;;;;;;14.90;8.03;;;;;;;16.56;51.92;100715.23;2183642;81;33732;-74
2021/10/26 11:31:53;;;;;;;15.53;8.88;;;;;;;16.70;51.09;100723.77;2181655;81;36783;-73
2021/10/26 11:34:55;;;;;;;15.23;8.38;;;;;;;16.76;51.35;100723.83;2182697;81;28204;-72
2021/10/26 11:38:03;;;;;;;13.95;8.13;;;;;;;16.82;51.14;100723.88;2174636;81;29836;-76
2021/10/26 11:41:19;;;;;;;14.98;8.48;;;;;;;16.90;50.58;100722.88;2158571;81;31933;-75
2021/10/26 11:44:21;;;;;;;21.20;11.53;;;;;;;16.90;50.58;100722.88;2157520;81;33076;-78
2021/10/26 11:47:23;;;;;;;11.53;8.20;;;;;;;17.05;50.44;100718.25;2158769;82;29375;-79
2021/10/26 11:50:26;;;;;;;19.25;9.68;;;;;;;17.05;50.44;100718.25;2158492;81;27758;-73
2021/10/26 11:53:29;;;;;;;15.23;9.73;;;;;;;17.13;50.43;100725.36;2159478;81;28068;-77
2021/10/26 11:56:45;;;;;;;14.47;8.80;;;;;;;17.22;50.23;100729.25;2158239;81;31989;-73
2021/10/26 11:59:47;;;;;;;14.40;8.33;;;;;;;17.29;50.17;100731.89;2153470;81;33810;-73
2021/10/26 12:02:52;;;;;;;14.98;8.68;;;;;;;17.35;49.76;100726.55;2157904;81;30667;-71
2021/10/26 12:05:57;;;;;;;11.57;8.25;;;;;;;17.39;49.47;100732.60;2180294;81;27679;-68
2021/10/26 12:09:00;;;;;;;14.78;8.00;;;;;;;17.41;49.43;100736.07;2174686;80;29861;-67
2021/10/26 12:12:15;;;;;;;11.15;8.08;;;;;;;17.46;49.47;100725.75;2180390;81;31013;-71
2021/10/26 12:15:17;;;;;;;11.88;7.72;;;;;;;17.50;49.06;100720.50;2179344;81;32983;-76
2021/10/26 12:18:33;;;;;;;14.70;8.40;;;;;;;17.48;49.15;100727.02;2155815;82;30123;-71
2021/10/26 12:21:35;;;;;;;14.18;8.63;;;;;;;17.50;48.90;100729.98;2164253;82;27666;-72
2021/10/26 12:24:37;;;;;;;15.30;7.83;;;;;;;17.51;48.42;100726.30;2166052;82;29467;-72
2021/10/26 12:27:59;;;;;;;14.78;8.80;;;;;;;17.53;48.24;100728.41;2165939;82;30541;-69
2021/10/26 12:31:04;;;;;;;14.63;8.20;;;;;;;17.57;48.36;100735.81;2155733;82;33064;-76
2021/10/26 12:34:07;;;;;;;17.05;9.00;;;;;;;17.63;48.50;100731.32;2129186;83;29348;-76
2021/10/26 12:37:33;;;;;;;16.57;7.75;;;;;;;17.75;48.26;100730.42;2129185;83;27681;-74
2021/10/26 12:40:42;;;;;;;12.40;8.03;;;;;;;17.77;48.05;100738.45;2140256;82;28717;-78
2021/10/26 12:44:01;;;;;;;13.85;8.05;;;;;;;17.75;47.75;100742.61;2152267;82;31886;-74
2021/10/26 12:47:04;;;;;;;14.15;7.80;;;;;;;17.70;47.76;100739.87;2151974;82;32979;-77
2021/10/26 12:50:07;;;;;;;17.48;8.40;;;;;;;17.61;47.65;100747.70;2152837;82;29178;-75
2021/10/26 12:53:17;;;;;;;12.75;7.37;;;;;;;17.56;47.60;100745.80;2152364;81;27701;-79
2021/10/26 12:56:29;;;;;;;13.00;7.45;;;;;;;17.54;47.61;100751.81;2152272;82;29491;-75
2021/10/26 12:59:41;;;;;;;14.50;8.80;;;;;;;17.47;47.58;100753.22;2155228;82;31416;-63
2021/10/26 13:02:42;;;;;;;14.75;7.37;;;;;;;17.38;47.45;100750.67;2090532;84;33967;-70
2021/10/26 13:05:53;;;;;;;13.75;7.20;;;;;;;17.21;47.34;100745.12;2096609;84;30284;-71
2021/10/26 13:08:56;;;;;;;9.83;7.15;;;;;;;17.12;47.57;100744.42;2096502;84;27761;-74
2021/10/26 13:12:33;;;;;;;13.45;8.10;;;;;;;17.05;47.65;100742.61;2096271;84;28742;-74
2021/10/26 13:15:35;;;;;;;13.28;7.28;;;;;;;16.97;47.82;100746.35;2090383;85;31097;-72
2021/10/26 13:18:37;;;;;;;13.10;7.90;;;;;;;16.88;47.92;100738.85;2089651;83;34155;-66
2021/10/26 13:21:46;;;;;;;11.48;7.70;;;;;;;16.81;48.17;100741.97;2090693;84;29464;-64
2021/10/26 13:24:48;;;;;;;17.32;7.95;;;;;;;16.75;48.03;100741.03;2096790;84;27747;-70
2021/10/26 13:27:51;;;;;;;16.12;7.50;;;;;;;16.78;48.43;100738.62;2096705;84;29086;-66
2021/10/26 13:30:59;;;;;;;16.55;9.18;;;;;;;16.83;48.18;100741.85;2096704;84;31853;-62
2021/10/26 13:34:01;;;;;;;13.62;7.75;;;;;;;16.87;47.89;100746.09;2090246;84;32980;-78
2021/10/26 13:37:04;;;;;;;13.38;7.85;;;;;;;16.85;47.82;100744.86;2089850;85;30489;-73
2021/10/26 13:40:08;;;;;;;13.75;7.60;;;;;;;16.80;47.81;100752.41;2089945;85;27723;-78
2021/10/26 13:43:10;;;;;;;14.25;8.20;;;;;;;16.75;48.02;100746.44;2089857;84;28662;-76
2021/10/26 13:46:18;;;;;;;22.70;10.88;;;;;;;16.69;47.90;100753.14;2090092;85;31038;-73
2021/10/26 13:49:20;;;;;;;18.07;11.83;;;;;;;16.58;47.65;100750.31;2090151;85;33411;-78
2021/10/26 13:52:22;;;;;;;15.60;10.25;;;;;;;16.44;47.96;100747.17;2090428;84;30018;-78
2021/10/26 13:55:24;;;;;;;15.98;10.18;;;;;;;16.34;48.26;100751.48;2096831;84;27815;-76
2021/10/26 13:58:28;;;;;;;16.12;9.93;;;;;;;16.25;48.66;100760.57;2096891;83;28708;-77
2021/10/26 14:01:30;;;;;;;20.27;10.43;;;;;;;16.19;48.90;100758.30;2097236;84;31028;-77
2021/10/26 14:04:32;;;;;;;17.92;10.63;;;;;;;16.12;49.06;100757.45;2099573;82;33074;-76
2021/10/26 14:07:38;;;;;;;19.62;12.82;;;;;;;16.02;49.25;100759.37;2152334;81;29389;-77
2021/10/26 14:10:41;;;;;;;15.38;10.10;;;;;;;15.93;49.56;100760.84;2152326;82;28275;-78
2021/10/26 14:13:43;;;;;;;16.75;10.55;;;;;;;15.88;49.78;100758.06;2144391;82;28658;-74
2021/10/26 14:16:46;;;;;;;19.32;11.75;;;;;;;15.83;49.99;100758.34;2151563;82;31051;-77